Mohnton, Pennsylvania
Current Conditions -  °F | °C
As of 3:54 AM on Friday 24 Oct 2014 (Local Time) from KRDG Reporting Station
Overcast Overcast  
Wind Chill: 56°   Ceiling: 2900
Heat Index: 56°   Visibility: 10mi
Dew Point: 44°   Wind: 9mph
Humidity: 64%   Direction: 340°NNW
Pressure: 29.86"   Gusts: NA
Location:  40.29°N, 75.98°W
Report Text: KRDG 240754Z 34008KT 10SM OVC029 13/07 A2986 RMK AO2 SLP117 T01330067
Loading
Personal Weather Stations






























Interactive Weather Map
Tropical Storm Tracking
New forecast layout! Learn more

10-Day Weather Forecast

Advertisements
Track Severe Weather on mobile